Las Vegas, Nevada
Traffic Map
Current Weather Conditions
Las Vegas, Nevada
Few Clouds
Few Clouds
105°
Feels Like: 105°
Wind Chill: 105° Ceiling: Unl
Heat Index: 105° Visibility: 10mi
Dew Point: 19° Wind: 9mph
Humidity: 5% Direction: 240° (WSW)
Pressure: 29.7in Gusts: 0mph
Raw Report DataKLAS 230356Z 24008KT 10SM FEW120 41/M07 A2970 RMK AO2 SLP021 T04061072
Traffic Incident Summary
Active as of:
Severity:
Category:
InformationThere was an issue retrieving the traffic information for this location. Please try a different location or try again shortly.
Advertisements
Track Severe Weather on mobile